createdAt,value
2023-02-09T00:01:59.150Z,71.46
2023-02-09T00:09:58.770Z,71.62
2023-02-09T00:13:58.562Z,71.86
2023-02-09T00:17:58.653Z,71.87
2023-02-09T00:21:58.800Z,71.91
2023-02-09T00:25:59.313Z,72.09
2023-02-09T00:29:58.670Z,72.11
2023-02-09T00:33:59.043Z,72.15
2023-02-09T00:37:58.734Z,72.12
2023-02-09T00:42:05.922Z,72.19
2023-02-09T00:45:59.197Z,72.23
2023-02-09T00:49:59.004Z,72.16
2023-02-09T00:53:58.920Z,72.16
2023-02-09T00:57:58.894Z,72.19
2023-02-09T01:01:59.182Z,72.35
2023-02-09T01:05:58.858Z,72.88
2023-02-09T01:09:59.080Z,73.11
2023-02-09T01:13:59.840Z,73.38
2023-02-09T01:17:59.313Z,73.51
2023-02-09T01:21:59.151Z,74.23
2023-02-09T01:26:00.365Z,74.54
2023-02-09T01:29:58.972Z,74.04
2023-02-09T01:34:01.549Z,73.89
2023-02-09T01:37:59.082Z,73.88
2023-02-09T01:41:58.736Z,73.76
2023-02-09T01:45:58.955Z,73.79
2023-02-09T01:49:59.066Z,73.83
2023-02-09T01:53:59.977Z,73.81
2023-02-09T01:58:05.560Z,73.91
2023-02-09T02:01:59.611Z,73.91
2023-02-09T02:06:04.326Z,73.92
2023-02-09T02:10:00.619Z,74.00
2023-02-09T02:13:59.140Z,74.08
2023-02-09T02:22:14.112Z,74.19
2023-02-09T02:26:18.671Z,74.17
2023-02-09T02:38:07.201Z,74.28
2023-02-09T02:42:17.389Z,74.31
2023-02-09T02:46:03.745Z,74.79
2023-02-09T02:50:05.013Z,74.92
2023-02-09T02:54:03.795Z,74.97
2023-02-09T03:06:02.271Z,75.30
2023-02-09T03:09:59.102Z,75.59
2023-02-09T03:14:09.584Z,75.56
2023-02-09T03:18:05.995Z,75.75
2023-02-09T03:22:06.918Z,75.99
2023-02-09T03:26:07.181Z,75.78
2023-02-09T03:30:03.307Z,75.80
2023-02-09T03:33:59.941Z,75.93
2023-02-09T03:38:00.403Z,76.19
2023-02-09T03:41:59.394Z,76.12
2023-02-09T03:45:59.265Z,76.71
2023-02-09T03:49:59.514Z,76.29
2023-02-09T03:53:59.210Z,76.51
2023-02-09T04:01:59.452Z,76.34
2023-02-09T04:05:59.498Z,76.28
2023-02-09T04:09:59.455Z,76.21
2023-02-09T04:13:59.423Z,76.15
2023-02-09T04:17:59.352Z,76.15
2023-02-09T04:21:59.978Z,76.14
2023-02-09T04:25:59.274Z,76.10
2023-02-09T04:29:59.332Z,76.14
2023-02-09T04:33:59.813Z,76.18
2023-02-09T04:37:59.256Z,76.26
2023-02-09T04:41:59.439Z,76.26
2023-02-09T04:46:00.158Z,76.26
2023-02-09T04:49:59.437Z,76.25
2023-02-09T04:58:09.353Z,76.38
2023-02-09T05:01:59.306Z,76.64
2023-02-09T05:06:01.431Z,76.50
2023-02-09T05:09:59.495Z,76.63
2023-02-09T05:13:59.884Z,76.63
2023-02-09T05:17:59.342Z,76.69
2023-02-09T05:21:59.517Z,77.19
2023-02-09T05:25:59.525Z,76.74
2023-02-09T05:29:59.507Z,76.68
2023-02-09T05:34:00.086Z,76.61
2023-02-09T05:37:59.540Z,76.57
2023-02-09T05:42:09.264Z,76.60
2023-02-09T05:57:59.669Z,76.73
2023-02-09T06:01:59.903Z,76.75
2023-02-09T06:05:59.799Z,76.82
2023-02-09T06:09:59.790Z,76.81
2023-02-09T06:14:00.090Z,76.83
2023-02-09T06:17:59.691Z,76.81
2023-02-09T06:26:04.484Z,76.87
2023-02-09T06:29:59.483Z,76.87
2023-02-09T06:34:00.492Z,76.93
2023-02-09T06:37:59.691Z,76.95
2023-02-09T06:46:05.568Z,76.99
2023-02-09T06:49:59.646Z,77.00
2023-02-09T06:54:00.015Z,77.01
2023-02-09T06:58:00.149Z,77.04
2023-02-09T07:02:00.172Z,77.05
2023-02-09T07:06:05.013Z,77.10
2023-02-09T07:10:00.358Z,77.16
2023-02-09T07:13:59.679Z,77.21
2023-02-09T07:22:00.005Z,77.28
2023-02-09T07:26:02.710Z,77.30
2023-02-09T07:30:01.080Z,77.32
2023-02-09T07:34:00.139Z,77.34
2023-02-09T07:37:59.825Z,77.34
2023-02-09T07:42:00.020Z,77.34
2023-02-09T07:46:00.274Z,77.37
2023-02-09T07:49:59.734Z,77.40
2023-02-09T07:58:00.141Z,77.54
2023-02-09T08:02:00.213Z,77.59
2023-02-09T08:06:03.443Z,77.64
2023-02-09T08:09:59.846Z,77.63
2023-02-09T08:14:03.935Z,77.69
2023-02-09T08:18:03.311Z,77.72
2023-02-09T08:21:59.989Z,77.72
2023-02-09T08:26:05.110Z,77.64
2023-02-09T08:30:00.663Z,77.69
2023-02-09T08:34:00.091Z,77.72
2023-02-09T08:38:01.275Z,77.77
2023-02-09T08:41:53.385Z,77.77
2023-02-09T08:46:04.658Z,77.81
2023-02-09T08:54:00.372Z,78.13
2023-02-09T08:57:59.983Z,78.32
2023-02-09T09:02:00.165Z,78.49
2023-02-09T09:06:01.739Z,78.53
2023-02-09T09:10:00.177Z,78.37
2023-02-09T09:14:00.068Z,78.36
2023-02-09T09:18:00.041Z,78.81
2023-02-09T09:22:02.458Z,78.84
2023-02-09T09:26:01.100Z,78.58
2023-02-09T09:30:00.937Z,78.55
2023-02-09T09:34:00.171Z,78.64
2023-02-09T09:38:00.679Z,78.55
2023-02-09T09:42:00.286Z,78.55
2023-02-09T09:46:01.675Z,78.61
2023-02-09T09:50:00.318Z,78.69
2023-02-09T09:54:01.897Z,78.75
2023-02-09T09:58:03.301Z,78.86
2023-02-09T10:02:14.059Z,78.82
2023-02-09T10:06:12.877Z,79.42
2023-02-09T10:10:04.314Z,79.29
2023-02-09T10:14:00.284Z,79.17
2023-02-09T10:18:00.752Z,79.10
2023-02-09T10:22:00.883Z,79.30
2023-02-09T10:26:03.587Z,79.35
2023-02-09T10:30:16.758Z,79.25
2023-02-09T10:34:03.305Z,79.16
2023-02-09T10:38:02.249Z,79.09
2023-02-09T10:42:13.554Z,79.17
2023-02-09T10:46:09.593Z,79.19
2023-02-09T10:50:05.159Z,79.18
2023-02-09T10:54:03.702Z,79.05
2023-02-09T10:58:11.340Z,78.99
2023-02-09T11:02:01.625Z,78.57
2023-02-09T11:06:13.235Z,78.58
2023-02-09T11:10:02.799Z,78.01
2023-02-09T11:14:01.246Z,77.50
2023-02-09T11:18:05.563Z,77.06
2023-02-09T11:22:07.839Z,76.10
2023-02-09T11:26:06.561Z,75.68
2023-02-09T11:30:14.743Z,75.33
2023-02-09T11:34:10.605Z,74.68
2023-02-09T11:38:04.540Z,73.48
2023-02-09T11:42:15.374Z,72.85
2023-02-09T11:46:08.405Z,73.12
2023-02-09T11:50:04.830Z,72.66
2023-02-09T11:54:07.951Z,72.72
2023-02-09T11:58:15.639Z,70.08
2023-02-09T12:02:09.601Z,70.09
2023-02-09T12:06:01.472Z,69.60
2023-02-09T12:10:10.122Z,69.22
2023-02-09T12:14:13.366Z,69.53
2023-02-09T12:18:04.729Z,68.93
2023-02-09T12:22:20.310Z,68.89
2023-02-09T12:26:02.194Z,67.92
2023-02-09T12:30:00.557Z,66.26
2023-02-09T12:34:12.520Z,66.83
2023-02-09T12:38:12.475Z,66.40
2023-02-09T12:42:20.772Z,65.34
2023-02-09T12:46:12.951Z,64.05
2023-02-09T12:50:03.361Z,64.79
2023-02-09T12:54:00.768Z,63.93
2023-02-09T12:58:00.653Z,63.15
2023-02-09T13:02:10.184Z,63.13
2023-02-09T13:06:05.405Z,63.25
2023-02-09T13:10:12.496Z,62.15
2023-02-09T13:14:06.487Z,62.86
2023-02-09T13:18:08.917Z,61.96
2023-02-09T13:22:14.437Z,61.46
2023-02-09T13:26:11.858Z,62.55
2023-02-09T13:30:00.707Z,62.40
2023-02-09T13:34:07.062Z,62.02
2023-02-09T13:38:11.249Z,60.50
2023-02-09T13:42:01.501Z,61.20
2023-02-09T13:46:01.970Z,61.29
2023-02-09T13:54:02.281Z,61.63
2023-02-09T13:58:03.364Z,60.65
2023-02-09T14:02:00.911Z,61.13
2023-02-09T14:06:06.884Z,61.04
2023-02-09T14:10:03.453Z,61.80
2023-02-09T14:14:04.575Z,61.57
2023-02-09T14:18:01.393Z,61.39
2023-02-09T14:22:00.890Z,61.65
2023-02-09T14:26:04.368Z,59.78
2023-02-09T14:30:00.954Z,60.36
2023-02-09T14:38:02.298Z,61.24
2023-02-09T14:42:14.363Z,60.04
2023-02-09T14:46:01.144Z,60.70
2023-02-09T14:50:01.832Z,60.72
2023-02-09T14:54:01.180Z,60.71
2023-02-09T14:58:09.724Z,60.15
2023-02-09T15:02:00.957Z,59.75
2023-02-09T15:06:04.014Z,59.95
2023-02-09T15:10:01.486Z,59.68
2023-02-09T15:14:02.975Z,60.24
2023-02-09T15:18:01.066Z,60.29
2023-02-09T15:22:07.360Z,60.30
2023-02-09T15:26:01.077Z,60.09
2023-02-09T15:30:05.599Z,60.02
2023-02-09T15:34:01.056Z,59.54
2023-02-09T15:38:01.369Z,59.53
2023-02-09T15:42:10.832Z,59.21
2023-02-09T15:46:11.474Z,58.63
2023-02-09T15:50:01.117Z,58.50
2023-02-09T15:54:04.243Z,58.28
2023-02-09T15:58:02.073Z,58.41
2023-02-09T16:02:01.203Z,57.78
2023-02-09T16:06:06.536Z,58.00
2023-02-09T16:10:01.256Z,57.64
2023-02-09T16:14:01.347Z,57.92
2023-02-09T16:18:01.126Z,57.68
2023-02-09T16:22:03.523Z,57.05
2023-02-09T16:26:04.202Z,57.08
2023-02-09T16:30:01.463Z,56.47
2023-02-09T16:34:01.131Z,56.18
2023-02-09T16:38:01.146Z,56.18
2023-02-09T16:42:01.275Z,56.38
2023-02-09T16:46:04.178Z,56.57
2023-02-09T16:50:16.821Z,56.85
2023-02-09T16:54:04.111Z,56.85
2023-02-09T16:58:04.070Z,57.62
2023-02-09T17:02:02.414Z,58.15
2023-02-09T17:06:02.478Z,58.57
2023-02-09T17:10:01.426Z,58.73
2023-02-09T17:14:01.320Z,58.77
2023-02-09T17:18:05.097Z,58.97
2023-02-09T17:22:03.058Z,59.15
2023-02-09T17:26:02.309Z,59.43
2023-02-09T17:30:01.630Z,59.66
2023-02-09T17:34:05.177Z,59.78
2023-02-09T17:38:01.345Z,59.80
2023-02-09T17:42:01.760Z,59.90
2023-02-09T17:46:03.138Z,60.12
2023-02-09T17:50:01.641Z,60.16
2023-02-09T17:54:01.478Z,60.27
2023-02-09T17:58:01.485Z,60.43
2023-02-09T18:02:01.436Z,60.50
2023-02-09T18:06:02.582Z,60.53
2023-02-09T18:10:01.466Z,60.81
2023-02-09T18:14:01.458Z,60.85
2023-02-09T18:18:02.540Z,61.06
2023-02-09T18:22:02.326Z,61.45
2023-02-09T18:26:01.562Z,61.55
2023-02-09T18:30:01.721Z,61.33
2023-02-09T18:34:01.456Z,61.38
2023-02-09T18:38:02.915Z,61.43
2023-02-09T18:42:01.768Z,61.34
2023-02-09T18:46:02.404Z,61.45
2023-02-09T18:50:01.570Z,61.41
2023-02-09T18:54:03.521Z,61.45
2023-02-09T18:58:04.538Z,61.60
2023-02-09T19:02:01.874Z,61.68
2023-02-09T19:06:01.559Z,61.80
2023-02-09T19:10:02.013Z,61.86
2023-02-09T19:14:11.429Z,61.93
2023-02-09T19:18:03.086Z,62.12
2023-02-09T19:22:01.664Z,62.26
2023-02-09T19:26:03.104Z,62.44
2023-02-09T19:30:01.993Z,62.38
2023-02-09T19:34:01.767Z,62.59
2023-02-09T19:38:01.671Z,62.73
2023-02-09T19:42:01.787Z,62.97
2023-02-09T19:46:03.492Z,63.18
2023-02-09T19:50:01.962Z,63.33
2023-02-09T19:54:01.942Z,63.45
2023-02-09T19:58:02.007Z,63.53
2023-02-09T20:02:01.806Z,63.75
2023-02-09T20:06:05.328Z,64.18
2023-02-09T20:10:01.797Z,64.48
2023-02-09T20:14:04.350Z,64.71
2023-02-09T20:18:02.972Z,64.88
2023-02-09T20:22:02.278Z,65.10
2023-02-09T20:26:09.329Z,65.17
2023-02-09T20:30:02.927Z,65.14
2023-02-09T20:34:04.072Z,65.02
2023-02-09T20:38:01.840Z,64.81
2023-02-09T20:42:11.671Z,64.78
2023-02-09T20:50:03.229Z,64.71
2023-02-09T20:54:02.483Z,64.76
2023-02-09T21:02:02.227Z,64.83
2023-02-09T21:06:02.029Z,64.93
2023-02-09T21:10:02.171Z,65.08
2023-02-09T21:14:02.209Z,65.24
2023-02-09T21:18:01.920Z,65.44
2023-02-09T21:22:02.045Z,65.51
2023-02-09T21:26:03.908Z,65.40
2023-02-09T21:30:02.892Z,65.50
2023-02-09T21:34:02.085Z,65.65
2023-02-09T21:38:02.027Z,65.81
2023-02-09T21:42:12.101Z,65.83
2023-02-09T21:46:02.004Z,65.92
2023-02-09T21:50:03.631Z,65.98
2023-02-09T21:54:02.107Z,65.93
2023-02-09T21:58:02.014Z,65.99
2023-02-09T22:02:02.928Z,66.16
2023-02-09T22:06:02.406Z,66.22
2023-02-09T22:10:03.070Z,66.17
2023-02-09T22:14:02.239Z,66.29
2023-02-09T22:18:02.131Z,66.41
2023-02-09T22:26:04.576Z,66.28
2023-02-09T22:30:02.282Z,66.24
2023-02-09T22:34:02.441Z,66.31
2023-02-09T22:38:02.081Z,66.39
2023-02-09T22:42:02.171Z,66.47
2023-02-09T22:46:02.193Z,66.57
2023-02-09T22:50:02.283Z,66.63
2023-02-09T22:54:04.121Z,66.81
2023-02-09T22:58:02.204Z,66.84
2023-02-09T23:02:02.539Z,66.84
2023-02-09T23:06:03.631Z,66.91
2023-02-09T23:10:02.333Z,66.89
2023-02-09T23:14:09.564Z,66.94
2023-02-09T23:18:02.409Z,66.93
2023-02-09T23:22:02.621Z,66.98
2023-02-09T23:26:02.273Z,67.20
2023-02-09T23:30:02.723Z,67.38
2023-02-09T23:34:03.221Z,67.30
2023-02-09T23:38:02.373Z,67.32
2023-02-09T23:42:02.453Z,67.55
2023-02-09T23:46:03.852Z,67.75
2023-02-09T23:50:02.363Z,67.60
2023-02-09T23:54:05.734Z,67.73
2023-02-09T23:58:02.345Z,67.71
